sensor_id;sensor_type;location;lat;lon;timestamp;P1;durP1;ratioP1;P2;durP2;ratioP2
10653;SDS011;5375;51.250;6.776;2022-12-13T00:01:40;6.70;;;5.50;;
10653;SDS011;5375;51.250;6.776;2022-12-13T00:04:06;7.30;;;5.70;;
10653;SDS011;5375;51.250;6.776;2022-12-13T00:06:33;6.43;;;5.43;;
10653;SDS011;5375;51.250;6.776;2022-12-13T00:08:59;7.67;;;5.23;;
10653;SDS011;5375;51.250;6.776;2022-12-13T00:11:26;6.67;;;5.63;;
10653;SDS011;5375;51.250;6.776;2022-12-13T00:13:52;6.83;;;5.53;;
10653;SDS011;5375;51.250;6.776;2022-12-13T00:16:19;6.63;;;5.57;;
10653;SDS011;5375;51.250;6.776;2022-12-13T00:18:50;6.60;;;5.33;;
10653;SDS011;5375;51.250;6.776;2022-12-13T00:21:17;7.07;;;5.60;;
10653;SDS011;5375;51.250;6.776;2022-12-13T00:23:44;7.23;;;5.90;;
10653;SDS011;5375;51.250;6.776;2022-12-13T00:26:11;6.30;;;5.40;;
10653;SDS011;5375;51.250;6.776;2022-12-13T00:28:37;6.03;;;5.40;;
10653;SDS011;5375;51.250;6.776;2022-12-13T00:31:03;6.90;;;5.43;;
10653;SDS011;5375;51.250;6.776;2022-12-13T00:33:29;6.60;;;5.20;;
10653;SDS011;5375;51.250;6.776;2022-12-13T00:35:55;6.03;;;5.13;;
10653;SDS011;5375;51.250;6.776;2022-12-13T00:38:22;7.60;;;5.30;;
10653;SDS011;5375;51.250;6.776;2022-12-13T00:40:48;6.87;;;5.57;;
10653;SDS011;5375;51.250;6.776;2022-12-13T00:43:15;6.90;;;5.53;;
10653;SDS011;5375;51.250;6.776;2022-12-13T00:45:41;7.70;;;5.53;;
10653;SDS011;5375;51.250;6.776;2022-12-13T00:48:07;6.90;;;5.20;;
10653;SDS011;5375;51.250;6.776;2022-12-13T00:50:33;7.00;;;5.00;;
10653;SDS011;5375;51.250;6.776;2022-12-13T00:52:59;6.33;;;5.27;;
10653;SDS011;5375;51.250;6.776;2022-12-13T00:55:26;7.77;;;5.80;;
10653;SDS011;5375;51.250;6.776;2022-12-13T00:57:52;5.70;;;5.07;;
10653;SDS011;5375;51.250;6.776;2022-12-13T01:00:18;5.20;;;4.70;;
10653;SDS011;5375;51.250;6.776;2022-12-13T01:02:44;6.40;;;4.80;;
10653;SDS011;5375;51.250;6.776;2022-12-13T01:05:11;6.07;;;4.87;;
10653;SDS011;5375;51.250;6.776;2022-12-13T01:07:39;5.40;;;4.87;;
10653;SDS011;5375;51.250;6.776;2022-12-13T01:10:08;6.17;;;5.10;;
10653;SDS011;5375;51.250;6.776;2022-12-13T01:12:34;6.33;;;5.33;;
10653;SDS011;5375;51.250;6.776;2022-12-13T01:15:00;5.97;;;4.83;;
10653;SDS011;5375;51.250;6.776;2022-12-13T01:17:26;5.93;;;4.90;;
10653;SDS011;5375;51.250;6.776;2022-12-13T01:19:52;5.70;;;4.77;;
10653;SDS011;5375;51.250;6.776;2022-12-13T01:22:18;5.57;;;4.67;;
10653;SDS011;5375;51.250;6.776;2022-12-13T01:24:44;6.63;;;5.23;;
10653;SDS011;5375;51.250;6.776;2022-12-13T01:27:10;6.20;;;4.97;;
10653;SDS011;5375;51.250;6.776;2022-12-13T01:29:36;5.27;;;4.60;;
10653;SDS011;5375;51.250;6.776;2022-12-13T01:32:02;5.90;;;5.00;;
10653;SDS011;5375;51.250;6.776;2022-12-13T01:34:28;5.27;;;4.63;;
10653;SDS011;5375;51.250;6.776;2022-12-13T01:36:54;5.30;;;4.80;;
10653;SDS011;5375;51.250;6.776;2022-12-13T01:39:21;6.57;;;4.90;;
10653;SDS011;5375;51.250;6.776;2022-12-13T01:41:48;6.77;;;4.77;;
10653;SDS011;5375;51.250;6.776;2022-12-13T01:46:59;6.23;;;4.87;;
10653;SDS011;5375;51.250;6.776;2022-12-13T01:49:25;5.80;;;4.77;;
10653;SDS011;5375;51.250;6.776;2022-12-13T01:51:52;4.80;;;4.30;;
10653;SDS011;5375;51.250;6.776;2022-12-13T01:54:20;6.67;;;4.77;;
10653;SDS011;5375;51.250;6.776;2022-12-13T01:56:49;4.93;;;4.37;;
10653;SDS011;5375;51.250;6.776;2022-12-13T01:59:16;5.43;;;4.57;;
10653;SDS011;5375;51.250;6.776;2022-12-13T02:01:43;5.33;;;4.77;;
10653;SDS011;5375;51.250;6.776;2022-12-13T02:04:09;4.97;;;4.40;;
10653;SDS011;5375;51.250;6.776;2022-12-13T02:06:40;5.23;;;4.50;;
10653;SDS011;5375;51.250;6.776;2022-12-13T02:09:07;5.50;;;4.40;;
10653;SDS011;5375;51.250;6.776;2022-12-13T02:11:34;6.77;;;4.90;;
10653;SDS011;5375;51.250;6.776;2022-12-13T02:14:00;8.07;;;4.90;;
10653;SDS011;5375;51.250;6.776;2022-12-13T02:21:27;5.37;;;4.83;;
10653;SDS011;5375;51.250;6.776;2022-12-13T02:29:00;6.73;;;4.83;;
10653;SDS011;5375;51.250;6.776;2022-12-13T02:34:25;5.77;;;4.90;;
10653;SDS011;5375;51.250;6.776;2022-12-13T02:37:03;8.80;;;4.60;;
10653;SDS011;5375;51.250;6.776;2022-12-13T02:39:34;12.87;;;4.70;;
10653;SDS011;5375;51.250;6.776;2022-12-13T02:42:04;7.27;;;4.70;;
10653;SDS011;5375;51.250;6.776;2022-12-13T02:44:35;9.33;;;4.60;;
10653;SDS011;5375;51.250;6.776;2022-12-13T02:47:07;7.47;;;4.57;;
10653;SDS011;5375;51.250;6.776;2022-12-13T02:49:34;7.63;;;5.00;;
10653;SDS011;5375;51.250;6.776;2022-12-13T02:52:02;6.17;;;4.23;;
10653;SDS011;5375;51.250;6.776;2022-12-13T02:54:28;11.17;;;4.70;;
10653;SDS011;5375;51.250;6.776;2022-12-13T02:56:55;9.67;;;4.27;;
10653;SDS011;5375;51.250;6.776;2022-12-13T02:59:21;13.90;;;4.63;;
10653;SDS011;5375;51.250;6.776;2022-12-13T03:14:40;5.60;;;4.43;;
10653;SDS011;5375;51.250;6.776;2022-12-13T03:17:10;5.17;;;4.40;;
10653;SDS011;5375;51.250;6.776;2022-12-13T03:19:39;7.10;;;4.60;;
10653;SDS011;5375;51.250;6.776;2022-12-13T03:22:05;5.27;;;4.57;;
10653;SDS011;5375;51.250;6.776;2022-12-13T03:24:31;5.00;;;4.07;;
10653;SDS011;5375;51.250;6.776;2022-12-13T03:26:57;5.17;;;4.40;;
10653;SDS011;5375;51.250;6.776;2022-12-13T03:29:23;6.43;;;4.67;;
10653;SDS011;5375;51.250;6.776;2022-12-13T03:31:49;5.13;;;4.33;;
10653;SDS011;5375;51.250;6.776;2022-12-13T03:34:15;5.53;;;4.50;;
10653;SDS011;5375;51.250;6.776;2022-12-13T03:36:41;5.50;;;4.90;;
10653;SDS011;5375;51.250;6.776;2022-12-13T03:39:07;7.37;;;4.70;;
10653;SDS011;5375;51.250;6.776;2022-12-13T03:41:33;5.13;;;4.37;;
10653;SDS011;5375;51.250;6.776;2022-12-13T03:44:02;5.73;;;4.43;;
10653;SDS011;5375;51.250;6.776;2022-12-13T03:46:29;7.17;;;4.53;;
10653;SDS011;5375;51.250;6.776;2022-12-13T03:48:55;7.33;;;4.60;;
10653;SDS011;5375;51.250;6.776;2022-12-13T03:51:21;5.93;;;4.73;;
10653;SDS011;5375;51.250;6.776;2022-12-13T03:53:47;7.03;;;4.43;;
10653;SDS011;5375;51.250;6.776;2022-12-13T03:56:13;44.37;;;6.20;;
10653;SDS011;5375;51.250;6.776;2022-12-13T03:58:39;9.90;;;4.37;;
10653;SDS011;5375;51.250;6.776;2022-12-13T04:01:09;15.37;;;4.47;;
10653;SDS011;5375;51.250;6.776;2022-12-13T04:03:36;15.50;;;4.53;;
10653;SDS011;5375;51.250;6.776;2022-12-13T04:06:03;19.17;;;4.60;;
10653;SDS011;5375;51.250;6.776;2022-12-13T04:08:29;14.27;;;5.03;;
10653;SDS011;5375;51.250;6.776;2022-12-13T04:10:55;10.77;;;4.40;;
10653;SDS011;5375;51.250;6.776;2022-12-13T04:13:21;12.67;;;4.57;;
10653;SDS011;5375;51.250;6.776;2022-12-13T04:15:57;8.70;;;4.60;;
10653;SDS011;5375;51.250;6.776;2022-12-13T04:18:23;9.03;;;4.70;;
10653;SDS011;5375;51.250;6.776;2022-12-13T04:20:49;9.10;;;4.93;;
10653;SDS011;5375;51.250;6.776;2022-12-13T04:23:15;7.07;;;4.60;;
10653;SDS011;5375;51.250;6.776;2022-12-13T04:25:41;5.33;;;4.67;;
10653;SDS011;5375;51.250;6.776;2022-12-13T04:28:08;7.67;;;4.40;;
10653;SDS011;5375;51.250;6.776;2022-12-13T04:30:34;5.70;;;4.30;;
10653;SDS011;5375;51.250;6.776;2022-12-13T04:33:00;8.23;;;4.83;;
10653;SDS011;5375;51.250;6.776;2022-12-13T04:35:27;6.73;;;4.57;;
10653;SDS011;5375;51.250;6.776;2022-12-13T04:37:53;8.40;;;4.87;;
10653;SDS011;5375;51.250;6.776;2022-12-13T04:40:20;7.03;;;4.33;;
10653;SDS011;5375;51.250;6.776;2022-12-13T04:42:46;8.23;;;4.53;;
10653;SDS011;5375;51.250;6.776;2022-12-13T04:45:14;6.07;;;4.80;;
10653;SDS011;5375;51.250;6.776;2022-12-13T04:47:40;6.83;;;4.67;;
10653;SDS011;5375;51.250;6.776;2022-12-13T04:50:06;6.00;;;4.33;;
10653;SDS011;5375;51.250;6.776;2022-12-13T04:52:32;5.17;;;4.20;;
10653;SDS011;5375;51.250;6.776;2022-12-13T04:54:59;6.03;;;4.53;;
10653;SDS011;5375;51.250;6.776;2022-12-13T04:57:25;5.20;;;4.10;;
10653;SDS011;5375;51.250;6.776;2022-12-13T04:59:51;5.50;;;4.00;;
10653;SDS011;5375;51.250;6.776;2022-12-13T05:02:17;5.97;;;4.30;;
10653;SDS011;5375;51.250;6.776;2022-12-13T05:04:44;6.43;;;4.37;;
10653;SDS011;5375;51.250;6.776;2022-12-13T05:07:10;5.70;;;4.30;;
10653;SDS011;5375;51.250;6.776;2022-12-13T05:12:33;6.80;;;3.80;;
10653;SDS011;5375;51.250;6.776;2022-12-13T05:15:00;6.17;;;3.70;;
10653;SDS011;5375;51.250;6.776;2022-12-13T05:17:26;6.40;;;3.80;;
10653;SDS011;5375;51.250;6.776;2022-12-13T05:19:52;4.73;;;3.67;;
10653;SDS011;5375;51.250;6.776;2022-12-13T05:22:18;6.00;;;3.60;;
10653;SDS011;5375;51.250;6.776;2022-12-13T05:24:44;4.63;;;3.77;;
10653;SDS011;5375;51.250;6.776;2022-12-13T05:27:11;4.90;;;3.60;;
10653;SDS011;5375;51.250;6.776;2022-12-13T05:29:37;5.70;;;3.30;;
10653;SDS011;5375;51.250;6.776;2022-12-13T05:32:03;5.23;;;3.80;;
10653;SDS011;5375;51.250;6.776;2022-12-13T05:34:29;4.57;;;3.23;;
10653;SDS011;5375;51.250;6.776;2022-12-13T05:36:55;3.63;;;3.20;;
10653;SDS011;5375;51.250;6.776;2022-12-13T05:39:21;4.17;;;3.53;;
10653;SDS011;5375;51.250;6.776;2022-12-13T05:41:47;4.43;;;3.37;;
10653;SDS011;5375;51.250;6.776;2022-12-13T05:44:13;3.40;;;2.93;;
10653;SDS011;5375;51.250;6.776;2022-12-13T05:46:39;3.50;;;3.20;;
10653;SDS011;5375;51.250;6.776;2022-12-13T05:49:05;4.00;;;3.37;;
10653;SDS011;5375;51.250;6.776;2022-12-13T05:51:31;4.67;;;3.43;;
10653;SDS011;5375;51.250;6.776;2022-12-13T05:53:57;4.63;;;3.50;;
10653;SDS011;5375;51.250;6.776;2022-12-13T05:56:23;6.63;;;3.90;;
10653;SDS011;5375;51.250;6.776;2022-12-13T05:58:49;4.27;;;3.70;;
10653;SDS011;5375;51.250;6.776;2022-12-13T06:01:24;10.73;;;3.93;;
10653;SDS011;5375;51.250;6.776;2022-12-13T06:03:50;4.27;;;3.80;;
10653;SDS011;5375;51.250;6.776;2022-12-13T06:06:16;5.33;;;3.53;;
10653;SDS011;5375;51.250;6.776;2022-12-13T06:08:42;4.20;;;3.73;;
10653;SDS011;5375;51.250;6.776;2022-12-13T06:11:09;6.07;;;4.00;;
10653;SDS011;5375;51.250;6.776;2022-12-13T06:13:35;6.10;;;3.20;;
10653;SDS011;5375;51.250;6.776;2022-12-13T06:16:01;4.27;;;3.50;;
10653;SDS011;5375;51.250;6.776;2022-12-13T06:18:31;4.50;;;3.40;;
10653;SDS011;5375;51.250;6.776;2022-12-13T06:20:58;4.00;;;3.13;;
10653;SDS011;5375;51.250;6.776;2022-12-13T06:23:25;4.10;;;3.17;;
10653;SDS011;5375;51.250;6.776;2022-12-13T06:25:51;4.23;;;3.30;;
10653;SDS011;5375;51.250;6.776;2022-12-13T06:28:17;5.83;;;3.23;;
10653;SDS011;5375;51.250;6.776;2022-12-13T06:30:43;4.20;;;3.50;;
10653;SDS011;5375;51.250;6.776;2022-12-13T06:33:10;4.27;;;3.50;;
10653;SDS011;5375;51.250;6.776;2022-12-13T06:35:36;5.13;;;3.83;;
10653;SDS011;5375;51.250;6.776;2022-12-13T06:38:02;5.17;;;3.90;;
10653;SDS011;5375;51.250;6.776;2022-12-13T06:40:29;4.93;;;4.03;;
10653;SDS011;5375;51.250;6.776;2022-12-13T06:43:03;4.73;;;3.93;;
10653;SDS011;5375;51.250;6.776;2022-12-13T06:45:30;6.90;;;4.13;;
10653;SDS011;5375;51.250;6.776;2022-12-13T06:47:56;6.07;;;4.07;;
10653;SDS011;5375;51.250;6.776;2022-12-13T06:50:22;6.60;;;4.53;;
10653;SDS011;5375;51.250;6.776;2022-12-13T06:52:48;5.33;;;4.53;;
10653;SDS011;5375;51.250;6.776;2022-12-13T06:55:14;7.37;;;4.20;;
10653;SDS011;5375;51.250;6.776;2022-12-13T06:57:40;6.43;;;4.20;;
10653;SDS011;5375;51.250;6.776;2022-12-13T07:00:08;5.30;;;4.03;;
10653;SDS011;5375;51.250;6.776;2022-12-13T07:02:35;6.10;;;4.43;;
10653;SDS011;5375;51.250;6.776;2022-12-13T07:05:04;6.47;;;3.97;;
10653;SDS011;5375;51.250;6.776;2022-12-13T07:07:30;5.70;;;3.73;;
10653;SDS011;5375;51.250;6.776;2022-12-13T07:09:56;5.27;;;4.23;;
10653;SDS011;5375;51.250;6.776;2022-12-13T07:12:22;6.03;;;4.20;;
10653;SDS011;5375;51.250;6.776;2022-12-13T07:14:48;5.70;;;4.50;;
10653;SDS011;5375;51.250;6.776;2022-12-13T07:17:14;6.53;;;4.40;;
10653;SDS011;5375;51.250;6.776;2022-12-13T07:19:40;5.17;;;4.27;;
10653;SDS011;5375;51.250;6.776;2022-12-13T07:22:06;7.77;;;4.17;;
10653;SDS011;5375;51.250;6.776;2022-12-13T07:24:33;4.73;;;4.23;;
10653;SDS011;5375;51.250;6.776;2022-12-13T07:26:59;6.03;;;4.53;;
10653;SDS011;5375;51.250;6.776;2022-12-13T07:29:25;6.60;;;4.33;;
10653;SDS011;5375;51.250;6.776;2022-12-13T07:31:51;6.63;;;4.17;;
10653;SDS011;5375;51.250;6.776;2022-12-13T07:34:17;5.30;;;4.03;;
10653;SDS011;5375;51.250;6.776;2022-12-13T07:36:43;5.57;;;4.50;;
10653;SDS011;5375;51.250;6.776;2022-12-13T07:39:09;7.43;;;4.47;;
10653;SDS011;5375;51.250;6.776;2022-12-13T07:41:35;6.20;;;4.57;;
10653;SDS011;5375;51.250;6.776;2022-12-13T07:44:01;6.87;;;4.33;;
10653;SDS011;5375;51.250;6.776;2022-12-13T07:46:27;4.87;;;4.27;;
10653;SDS011;5375;51.250;6.776;2022-12-13T07:48:53;6.63;;;4.53;;
10653;SDS011;5375;51.250;6.776;2022-12-13T07:51:19;6.73;;;4.80;;
10653;SDS011;5375;51.250;6.776;2022-12-13T07:53:45;5.73;;;4.67;;
10653;SDS011;5375;51.250;6.776;2022-12-13T07:56:11;5.53;;;4.70;;
10653;SDS011;5375;51.250;6.776;2022-12-13T07:58:37;6.77;;;4.60;;
10653;SDS011;5375;51.250;6.776;2022-12-13T08:01:06;6.53;;;4.90;;
10653;SDS011;5375;51.250;6.776;2022-12-13T08:03:33;5.40;;;4.30;;
10653;SDS011;5375;51.250;6.776;2022-12-13T08:08:28;8.00;;;5.10;;
10653;SDS011;5375;51.250;6.776;2022-12-13T08:10:54;6.90;;;4.80;;
10653;SDS011;5375;51.250;6.776;2022-12-13T08:13:24;6.27;;;4.87;;
10653;SDS011;5375;51.250;6.776;2022-12-13T08:15:50;5.67;;;4.73;;
10653;SDS011;5375;51.250;6.776;2022-12-13T08:18:21;5.90;;;4.80;;
10653;SDS011;5375;51.250;6.776;2022-12-13T08:20:47;6.50;;;4.87;;
10653;SDS011;5375;51.250;6.776;2022-12-13T08:23:13;7.80;;;4.40;;
10653;SDS011;5375;51.250;6.776;2022-12-13T08:25:39;6.03;;;4.60;;
10653;SDS011;5375;51.250;6.776;2022-12-13T08:28:05;5.73;;;4.60;;
10653;SDS011;5375;51.250;6.776;2022-12-13T08:30:32;6.07;;;4.87;;
10653;SDS011;5375;51.250;6.776;2022-12-13T08:32:58;7.17;;;5.20;;
10653;SDS011;5375;51.250;6.776;2022-12-13T08:35:27;8.47;;;4.83;;
10653;SDS011;5375;51.250;6.776;2022-12-13T08:37:53;7.97;;;4.93;;
10653;SDS011;5375;51.250;6.776;2022-12-13T08:40:19;6.47;;;5.10;;
10653;SDS011;5375;51.250;6.776;2022-12-13T08:42:45;6.90;;;4.50;;
10653;SDS011;5375;51.250;6.776;2022-12-13T08:45:11;6.80;;;4.50;;
10653;SDS011;5375;51.250;6.776;2022-12-13T08:47:37;7.87;;;4.90;;
10653;SDS011;5375;51.250;6.776;2022-12-13T08:50:04;6.53;;;4.90;;
10653;SDS011;5375;51.250;6.776;2022-12-13T08:52:30;6.13;;;4.50;;
10653;SDS011;5375;51.250;6.776;2022-12-13T08:54:56;6.37;;;4.70;;
10653;SDS011;5375;51.250;6.776;2022-12-13T08:57:22;6.90;;;4.70;;
10653;SDS011;5375;51.250;6.776;2022-12-13T08:59:48;5.50;;;4.57;;
10653;SDS011;5375;51.250;6.776;2022-12-13T09:02:14;5.87;;;4.40;;
10653;SDS011;5375;51.250;6.776;2022-12-13T09:04:41;7.37;;;4.83;;
10653;SDS011;5375;51.250;6.776;2022-12-13T09:07:07;6.00;;;4.80;;
10653;SDS011;5375;51.250;6.776;2022-12-13T09:09:33;5.90;;;4.53;;
10653;SDS011;5375;51.250;6.776;2022-12-13T09:11:59;6.03;;;4.50;;
10653;SDS011;5375;51.250;6.776;2022-12-13T09:14:26;13.60;;;4.50;;
10653;SDS011;5375;51.250;6.776;2022-12-13T09:16:52;7.83;;;4.87;;
10653;SDS011;5375;51.250;6.776;2022-12-13T09:19:18;6.20;;;4.30;;
10653;SDS011;5375;51.250;6.776;2022-12-13T09:21:44;5.63;;;4.43;;
10653;SDS011;5375;51.250;6.776;2022-12-13T09:24:10;5.57;;;4.30;;
10653;SDS011;5375;51.250;6.776;2022-12-13T09:26:36;7.73;;;4.50;;
10653;SDS011;5375;51.250;6.776;2022-12-13T09:29:02;7.27;;;4.30;;
10653;SDS011;5375;51.250;6.776;2022-12-13T09:31:28;6.33;;;4.27;;
10653;SDS011;5375;51.250;6.776;2022-12-13T09:33:54;5.97;;;4.40;;
10653;SDS011;5375;51.250;6.776;2022-12-13T09:36:20;6.53;;;4.03;;
10653;SDS011;5375;51.250;6.776;2022-12-13T09:38:46;5.87;;;4.27;;
10653;SDS011;5375;51.250;6.776;2022-12-13T09:43:38;7.23;;;4.70;;
10653;SDS011;5375;51.250;6.776;2022-12-13T09:46:06;4.93;;;4.00;;
10653;SDS011;5375;51.250;6.776;2022-12-13T09:48:33;6.87;;;4.17;;
10653;SDS011;5375;51.250;6.776;2022-12-13T09:51:00;6.13;;;4.40;;
10653;SDS011;5375;51.250;6.776;2022-12-13T09:53:27;6.33;;;4.40;;
10653;SDS011;5375;51.250;6.776;2022-12-13T09:55:53;7.30;;;3.90;;
10653;SDS011;5375;51.250;6.776;2022-12-13T09:58:20;5.83;;;4.47;;
10653;SDS011;5375;51.250;6.776;2022-12-13T10:00:48;5.33;;;3.90;;
10653;SDS011;5375;51.250;6.776;2022-12-13T10:03:17;6.17;;;4.30;;
10653;SDS011;5375;51.250;6.776;2022-12-13T10:05:44;6.83;;;4.33;;
10653;SDS011;5375;51.250;6.776;2022-12-13T10:08:12;5.63;;;4.27;;
10653;SDS011;5375;51.250;6.776;2022-12-13T10:10:39;4.77;;;4.10;;
10653;SDS011;5375;51.250;6.776;2022-12-13T10:15:31;4.40;;;3.77;;
10653;SDS011;5375;51.250;6.776;2022-12-13T10:17:58;7.70;;;3.97;;
10653;SDS011;5375;51.250;6.776;2022-12-13T10:20:26;5.73;;;4.07;;
10653;SDS011;5375;51.250;6.776;2022-12-13T10:22:53;4.77;;;3.93;;
10653;SDS011;5375;51.250;6.776;2022-12-13T10:25:38;5.10;;;4.00;;
10653;SDS011;5375;51.250;6.776;2022-12-13T10:28:05;5.03;;;3.83;;
10653;SDS011;5375;51.250;6.776;2022-12-13T10:30:37;5.40;;;3.90;;
10653;SDS011;5375;51.250;6.776;2022-12-13T10:33:04;5.33;;;4.27;;
10653;SDS011;5375;51.250;6.776;2022-12-13T10:35:31;4.40;;;3.80;;
10653;SDS011;5375;51.250;6.776;2022-12-13T10:38:02;5.90;;;4.10;;
10653;SDS011;5375;51.250;6.776;2022-12-13T10:40:32;6.40;;;4.00;;
10653;SDS011;5375;51.250;6.776;2022-12-13T10:45:37;4.50;;;3.40;;
10653;SDS011;5375;51.250;6.776;2022-12-13T10:48:03;4.60;;;3.57;;
10653;SDS011;5375;51.250;6.776;2022-12-13T10:50:29;4.70;;;3.60;;
10653;SDS011;5375;51.250;6.776;2022-12-13T10:52:56;5.70;;;3.30;;
10653;SDS011;5375;51.250;6.776;2022-12-13T10:57:54;4.43;;;3.53;;
10653;SDS011;5375;51.250;6.776;2022-12-13T11:00:39;4.37;;;3.70;;
10653;SDS011;5375;51.250;6.776;2022-12-13T11:03:06;4.73;;;3.90;;
10653;SDS011;5375;51.250;6.776;2022-12-13T11:05:33;4.53;;;3.77;;
10653;SDS011;5375;51.250;6.776;2022-12-13T11:08:13;4.90;;;3.83;;
10653;SDS011;5375;51.250;6.776;2022-12-13T11:10:40;5.13;;;3.63;;
10653;SDS011;5375;51.250;6.776;2022-12-13T11:13:06;5.17;;;4.13;;
10653;SDS011;5375;51.250;6.776;2022-12-13T11:15:33;5.67;;;3.60;;
10653;SDS011;5375;51.250;6.776;2022-12-13T11:18:00;4.67;;;3.90;;
10653;SDS011;5375;51.250;6.776;2022-12-13T11:20:31;4.90;;;4.10;;
10653;SDS011;5375;51.250;6.776;2022-12-13T11:25:43;5.03;;;3.73;;
10653;SDS011;5375;51.250;6.776;2022-12-13T11:38:25;5.37;;;3.60;;
10653;SDS011;5375;51.250;6.776;2022-12-13T11:40:58;4.60;;;3.73;;
10653;SDS011;5375;51.250;6.776;2022-12-13T11:46:13;4.30;;;3.37;;
10653;SDS011;5375;51.250;6.776;2022-12-13T11:48:47;4.27;;;3.60;;
10653;SDS011;5375;51.250;6.776;2022-12-13T11:51:17;4.20;;;3.43;;
10653;SDS011;5375;51.250;6.776;2022-12-13T11:53:52;4.47;;;3.67;;
10653;SDS011;5375;51.250;6.776;2022-12-13T11:56:27;4.23;;;3.30;;
10653;SDS011;5375;51.250;6.776;2022-12-13T12:06:41;4.87;;;3.67;;
10653;SDS011;5375;51.250;6.776;2022-12-13T12:09:11;4.60;;;3.60;;
10653;SDS011;5375;51.250;6.776;2022-12-13T12:11:48;4.53;;;3.60;;
10653;SDS011;5375;51.250;6.776;2022-12-13T12:16:43;4.03;;;3.57;;
10653;SDS011;5375;51.250;6.776;2022-12-13T12:19:12;4.03;;;3.63;;
10653;SDS011;5375;51.250;6.776;2022-12-13T12:22:24;4.20;;;3.50;;
10653;SDS011;5375;51.250;6.776;2022-12-13T12:53:28;4.47;;;3.33;;
10653;SDS011;5375;51.250;6.776;2022-12-13T12:58:54;3.97;;;3.07;;
10653;SDS011;5375;51.250;6.776;2022-12-13T13:04:04;5.40;;;2.93;;
10653;SDS011;5375;51.250;6.776;2022-12-13T13:06:34;5.83;;;3.30;;
10653;SDS011;5375;51.250;6.776;2022-12-13T13:09:04;3.73;;;3.20;;
10653;SDS011;5375;51.250;6.776;2022-12-13T13:11:35;5.50;;;3.30;;
10653;SDS011;5375;51.250;6.776;2022-12-13T13:14:04;3.80;;;3.23;;
10653;SDS011;5375;51.250;6.776;2022-12-13T13:16:33;4.47;;;3.30;;
10653;SDS011;5375;51.250;6.776;2022-12-13T13:21:30;4.47;;;3.30;;
10653;SDS011;5375;51.250;6.776;2022-12-13T13:34:23;4.57;;;3.23;;
10653;SDS011;5375;51.250;6.776;2022-12-13T13:36:50;4.17;;;3.27;;
10653;SDS011;5375;51.250;6.776;2022-12-13T13:39:51;3.70;;;3.20;;
10653;SDS011;5375;51.250;6.776;2022-12-13T13:47:14;4.87;;;3.10;;
10653;SDS011;5375;51.250;6.776;2022-12-13T13:52:23;3.80;;;3.03;;
10653;SDS011;5375;51.250;6.776;2022-12-13T13:55:12;3.80;;;2.80;;
10653;SDS011;5375;51.250;6.776;2022-12-13T14:06:10;4.37;;;3.17;;
10653;SDS011;5375;51.250;6.776;2022-12-13T14:11:36;6.67;;;2.93;;
10653;SDS011;5375;51.250;6.776;2022-12-13T14:14:36;5.77;;;2.67;;
10653;SDS011;5375;51.250;6.776;2022-12-13T14:19:50;3.87;;;3.03;;
10653;SDS011;5375;51.250;6.776;2022-12-13T14:25:14;4.13;;;3.03;;
10653;SDS011;5375;51.250;6.776;2022-12-13T14:27:47;4.73;;;3.20;;
10653;SDS011;5375;51.250;6.776;2022-12-13T14:30:15;3.83;;;3.10;;
10653;SDS011;5375;51.250;6.776;2022-12-13T14:32:42;3.40;;;3.10;;
10653;SDS011;5375;51.250;6.776;2022-12-13T14:35:28;4.40;;;3.23;;
10653;SDS011;5375;51.250;6.776;2022-12-13T14:38:04;4.73;;;3.30;;
10653;SDS011;5375;51.250;6.776;2022-12-13T14:40:31;3.37;;;3.00;;
10653;SDS011;5375;51.250;6.776;2022-12-13T14:42:58;4.27;;;3.13;;
10653;SDS011;5375;51.250;6.776;2022-12-13T14:45:25;3.20;;;2.60;;
10653;SDS011;5375;51.250;6.776;2022-12-13T14:47:53;3.30;;;3.00;;
10653;SDS011;5375;51.250;6.776;2022-12-13T14:50:20;4.73;;;3.30;;
10653;SDS011;5375;51.250;6.776;2022-12-13T14:52:47;3.33;;;2.83;;
10653;SDS011;5375;51.250;6.776;2022-12-13T14:57:50;5.47;;;3.17;;
10653;SDS011;5375;51.250;6.776;2022-12-13T15:00:24;4.33;;;3.23;;
10653;SDS011;5375;51.250;6.776;2022-12-13T15:02:52;4.63;;;2.93;;
10653;SDS011;5375;51.250;6.776;2022-12-13T15:05:23;3.87;;;2.90;;
10653;SDS011;5375;51.250;6.776;2022-12-13T15:07:49;3.40;;;2.83;;
10653;SDS011;5375;51.250;6.776;2022-12-13T15:12:43;3.77;;;3.17;;
10653;SDS011;5375;51.250;6.776;2022-12-13T15:15:13;4.17;;;2.90;;
10653;SDS011;5375;51.250;6.776;2022-12-13T15:17:42;3.50;;;3.10;;
10653;SDS011;5375;51.250;6.776;2022-12-13T15:20:22;4.27;;;3.13;;
10653;SDS011;5375;51.250;6.776;2022-12-13T15:22:55;3.83;;;2.93;;
10653;SDS011;5375;51.250;6.776;2022-12-13T15:25:21;3.30;;;2.90;;
10653;SDS011;5375;51.250;6.776;2022-12-13T15:27:47;3.40;;;2.83;;
10653;SDS011;5375;51.250;6.776;2022-12-13T15:30:15;2.83;;;2.33;;
10653;SDS011;5375;51.250;6.776;2022-12-13T15:35:26;5.97;;;2.97;;
10653;SDS011;5375;51.250;6.776;2022-12-13T15:37:52;3.70;;;2.83;;
10653;SDS011;5375;51.250;6.776;2022-12-13T15:40:18;4.93;;;3.07;;
10653;SDS011;5375;51.250;6.776;2022-12-13T15:42:44;5.43;;;3.00;;
10653;SDS011;5375;51.250;6.776;2022-12-13T15:45:21;4.30;;;2.90;;
10653;SDS011;5375;51.250;6.776;2022-12-13T15:47:48;3.90;;;2.90;;
10653;SDS011;5375;51.250;6.776;2022-12-13T15:50:31;2.67;;;2.47;;
10653;SDS011;5375;51.250;6.776;2022-12-13T15:53:02;4.97;;;2.63;;
10653;SDS011;5375;51.250;6.776;2022-12-13T15:55:32;3.50;;;2.67;;
10653;SDS011;5375;51.250;6.776;2022-12-13T15:57:59;3.27;;;2.77;;
10653;SDS011;5375;51.250;6.776;2022-12-13T16:00:26;3.73;;;2.90;;
10653;SDS011;5375;51.250;6.776;2022-12-13T16:07:54;3.70;;;2.60;;
10653;SDS011;5375;51.250;6.776;2022-12-13T16:10:20;3.63;;;2.70;;
10653;SDS011;5375;51.250;6.776;2022-12-13T16:12:48;3.70;;;2.93;;
10653;SDS011;5375;51.250;6.776;2022-12-13T16:17:41;3.27;;;2.93;;
10653;SDS011;5375;51.250;6.776;2022-12-13T16:20:11;6.30;;;3.00;;
10653;SDS011;5375;51.250;6.776;2022-12-13T16:22:38;3.83;;;3.03;;
10653;SDS011;5375;51.250;6.776;2022-12-13T16:25:04;4.27;;;3.13;;
10653;SDS011;5375;51.250;6.776;2022-12-13T16:27:30;3.43;;;2.83;;
10653;SDS011;5375;51.250;6.776;2022-12-13T16:29:56;5.33;;;2.87;;
10653;SDS011;5375;51.250;6.776;2022-12-13T16:32:22;5.53;;;3.03;;
10653;SDS011;5375;51.250;6.776;2022-12-13T16:34:48;4.60;;;3.33;;
10653;SDS011;5375;51.250;6.776;2022-12-13T16:37:14;3.63;;;3.20;;
10653;SDS011;5375;51.250;6.776;2022-12-13T16:39:41;4.43;;;2.93;;
10653;SDS011;5375;51.250;6.776;2022-12-13T16:42:07;4.20;;;3.60;;
10653;SDS011;5375;51.250;6.776;2022-12-13T16:44:34;5.30;;;3.60;;
10653;SDS011;5375;51.250;6.776;2022-12-13T16:47:01;4.53;;;3.53;;
10653;SDS011;5375;51.250;6.776;2022-12-13T16:49:28;4.07;;;3.27;;
10653;SDS011;5375;51.250;6.776;2022-12-13T16:51:54;4.37;;;3.30;;
10653;SDS011;5375;51.250;6.776;2022-12-13T16:54:21;4.57;;;3.27;;
10653;SDS011;5375;51.250;6.776;2022-12-13T16:56:48;5.20;;;3.57;;
10653;SDS011;5375;51.250;6.776;2022-12-13T16:59:15;5.03;;;3.10;;
10653;SDS011;5375;51.250;6.776;2022-12-13T17:01:42;4.80;;;3.60;;
10653;SDS011;5375;51.250;6.776;2022-12-13T17:04:10;4.60;;;3.53;;
10653;SDS011;5375;51.250;6.776;2022-12-13T17:06:36;5.33;;;3.80;;
10653;SDS011;5375;51.250;6.776;2022-12-13T17:09:02;6.23;;;4.13;;
10653;SDS011;5375;51.250;6.776;2022-12-13T17:11:30;7.57;;;5.37;;
10653;SDS011;5375;51.250;6.776;2022-12-13T17:13:56;8.27;;;5.10;;
10653;SDS011;5375;51.250;6.776;2022-12-13T17:16:22;6.37;;;5.00;;
10653;SDS011;5375;51.250;6.776;2022-12-13T17:18:48;9.80;;;6.10;;
10653;SDS011;5375;51.250;6.776;2022-12-13T17:21:15;9.47;;;6.10;;
10653;SDS011;5375;51.250;6.776;2022-12-13T17:23:41;9.27;;;6.20;;
10653;SDS011;5375;51.250;6.776;2022-12-13T17:26:08;9.83;;;6.93;;
10653;SDS011;5375;51.250;6.776;2022-12-13T17:28:34;9.07;;;6.77;;
10653;SDS011;5375;51.250;6.776;2022-12-13T17:31:07;11.80;;;6.53;;
10653;SDS011;5375;51.250;6.776;2022-12-13T17:33:35;9.97;;;6.80;;
10653;SDS011;5375;51.250;6.776;2022-12-13T17:36:05;11.97;;;6.37;;
10653;SDS011;5375;51.250;6.776;2022-12-13T17:38:31;10.40;;;7.00;;
10653;SDS011;5375;51.250;6.776;2022-12-13T17:40:57;10.33;;;6.77;;